createdAt,value
2023-05-14T00:02:10.001Z,96077.88
2023-05-14T00:04:37.810Z,96077.88
2023-05-14T00:07:05.693Z,96073.59
2023-05-14T00:09:33.624Z,96078.13
2023-05-14T00:12:02.546Z,96074.88
2023-05-14T00:14:30.694Z,96072.44
2023-05-14T00:16:59.457Z,96071.09
2023-05-14T00:19:27.139Z,96076.41
2023-05-14T00:21:54.715Z,96070.50
2023-05-14T00:24:22.346Z,96070.50
2023-05-14T00:26:49.930Z,96069.94
2023-05-14T00:29:18.838Z,96061.16
2023-05-14T00:31:46.578Z,96069.38
2023-05-14T00:34:14.278Z,96063.28
2023-05-14T00:36:41.802Z,96066.16
2023-05-14T00:39:09.404Z,96069.06
2023-05-14T00:41:37.087Z,96063.75
2023-05-14T00:44:04.958Z,96065.56
2023-05-14T00:46:34.348Z,96070.88
2023-05-14T00:49:02.163Z,96062.34
2023-05-14T00:51:30.274Z,96062.59
2023-05-14T00:53:58.023Z,96064.22
2023-05-14T00:56:26.614Z,96066.28
2023-05-14T00:58:54.216Z,96058.53
2023-05-14T01:01:21.894Z,96072.06
2023-05-14T01:03:53.300Z,96060.63
2023-05-14T01:06:29.904Z,96053.94
2023-05-14T01:09:04.526Z,96055.22
2023-05-14T01:11:41.157Z,96046.44
2023-05-14T01:14:19.795Z,96046.44
2023-05-14T01:16:50.076Z,96048.06
2023-05-14T01:19:27.914Z,96041.13
2023-05-14T01:21:57.721Z,96042.41
2023-05-14T01:24:25.387Z,96040.00
2023-05-14T01:26:54.570Z,96034.69
2023-05-14T01:29:23.554Z,96040.00
2023-05-14T01:31:54.368Z,96039.16
2023-05-14T01:34:24.510Z,96037.81
2023-05-14T01:36:53.982Z,96038.84
2023-05-14T01:39:25.933Z,96045.78
2023-05-14T01:41:55.180Z,96034.34
2023-05-14T01:44:23.172Z,96033.72
2023-05-14T01:46:50.824Z,96035.03
2023-05-14T01:49:19.574Z,96027.31
2023-05-14T01:51:47.225Z,96028.09
2023-05-14T01:54:14.862Z,96026.47
2023-05-14T01:56:43.762Z,96024.06
2023-05-14T01:59:11.433Z,96025.91
2023-05-14T02:01:39.055Z,96028.56
2023-05-14T02:04:06.794Z,96030.97
2023-05-14T02:06:34.755Z,96033.88
2023-05-14T02:09:03.643Z,96028.25
2023-05-14T02:11:31.283Z,96029.84
2023-05-14T02:14:00.208Z,96032.47
2023-05-14T02:16:27.977Z,96029.28
2023-05-14T02:18:56.081Z,96029.50
2023-05-14T02:21:23.654Z,96022.56
2023-05-14T02:23:51.439Z,96023.63
2023-05-14T02:26:19.045Z,96014.28
2023-05-14T02:28:46.689Z,96015.91
2023-05-14T02:31:17.471Z,96013.47
2023-05-14T02:33:45.212Z,96015.53
2023-05-14T02:36:13.176Z,96017.06
2023-05-14T02:38:40.833Z,96016.28
2023-05-14T02:41:08.647Z,96010.50
2023-05-14T02:43:36.250Z,96010.72
2023-05-14T02:46:03.976Z,96010.50
2023-05-14T02:48:33.073Z,96011.75
2023-05-14T02:51:01.395Z,96007.47
2023-05-14T02:53:29.043Z,96011.19
2023-05-14T02:55:56.927Z,96003.47
2023-05-14T02:58:28.430Z,96005.88
2023-05-14T03:00:56.575Z,96009.56
2023-05-14T03:03:24.700Z,96004.81
2023-05-14T03:05:54.474Z,96005.28
2023-05-14T03:08:22.089Z,95991.47
2023-05-14T03:10:49.729Z,95995.75
2023-05-14T03:13:19.871Z,95992.03
2023-05-14T03:15:48.455Z,95996.78
2023-05-14T03:18:16.248Z,96002.06
2023-05-14T03:20:43.891Z,95993.09
2023-05-14T03:23:13.456Z,95996.78
2023-05-14T03:25:41.010Z,95986.63
2023-05-14T03:28:09.234Z,95987.41
2023-05-14T03:30:37.223Z,95989.50
2023-05-14T03:33:05.152Z,95990.53
2023-05-14T03:35:32.829Z,95991.94
2023-05-14T03:38:00.451Z,95986.84
2023-05-14T03:40:29.449Z,95987.66
2023-05-14T03:42:57.050Z,95987.66
2023-05-14T03:45:24.730Z,95985.00
2023-05-14T03:47:52.368Z,95989.75
2023-05-14T03:50:19.947Z,95992.41
2023-05-14T03:52:47.546Z,95990.78
2023-05-14T03:55:15.215Z,95997.69
2023-05-14T03:57:44.196Z,95991.59
2023-05-14T04:00:13.162Z,95995.28
2023-05-14T04:02:41.339Z,95992.41
2023-05-14T04:05:09.483Z,95990.78
2023-05-14T04:07:37.160Z,95986.28
2023-05-14T04:10:05.668Z,95990.78
2023-05-14T04:12:33.344Z,95982.81
2023-05-14T04:15:02.312Z,95992.41
2023-05-14T04:17:29.976Z,95989.75
2023-05-14T04:19:57.605Z,95995.84
2023-05-14T04:22:25.295Z,95992.41
2023-05-14T04:24:53.152Z,95994.00
2023-05-14T04:27:22.046Z,95999.88
2023-05-14T04:29:49.633Z,95994.56
2023-05-14T04:32:18.811Z,95987.66
2023-05-14T04:34:46.782Z,95997.22
2023-05-14T04:37:14.522Z,95994.34
2023-05-14T04:39:42.476Z,95993.56
2023-05-14T04:42:10.715Z,96000.22
2023-05-14T04:44:38.540Z,95996.78
2023-05-14T04:47:06.772Z,96002.63
2023-05-14T04:49:35.674Z,95996.06
2023-05-14T04:52:03.368Z,95993.75
2023-05-14T04:54:31.052Z,95993.75
2023-05-14T04:57:02.991Z,95998.03
2023-05-14T04:59:30.720Z,96000.66
2023-05-14T05:01:58.514Z,96000.66
2023-05-14T05:04:26.336Z,95997.78
2023-05-14T05:06:55.276Z,96002.84
2023-05-14T05:09:22.995Z,96006.31
2023-05-14T05:11:50.616Z,96007.09
2023-05-14T05:14:18.375Z,96003.66
2023-05-14T05:16:46.063Z,96006.31
2023-05-14T05:19:13.853Z,96005.28
2023-05-14T05:21:41.707Z,96009.53
2023-05-14T05:24:10.686Z,96006.06
2023-05-14T05:26:38.235Z,96011.16
2023-05-14T05:29:06.230Z,96010.13
2023-05-14T05:31:34.348Z,96006.41
2023-05-14T05:34:02.585Z,96004.09
2023-05-14T05:36:30.137Z,96010.31
2023-05-14T05:38:57.700Z,96009.03
2023-05-14T05:41:27.039Z,96012.06
2023-05-14T05:43:54.632Z,96007.81
2023-05-14T05:46:22.297Z,96011.50
2023-05-14T05:48:49.901Z,96000.28
2023-05-14T05:51:17.753Z,96002.72
2023-05-14T05:53:45.371Z,96001.44
2023-05-14T05:56:12.997Z,95997.28
2023-05-14T05:58:41.942Z,95999.78
2023-05-14T06:01:09.588Z,95994.47
2023-05-14T06:03:37.302Z,96007.41
2023-05-14T06:06:05.202Z,96004.19
2023-05-14T06:08:32.846Z,96010.88
2023-05-14T06:11:00.463Z,96001.03
2023-05-14T06:13:28.134Z,96012.50
2023-05-14T06:15:57.119Z,96006.34
2023-05-14T06:18:24.714Z,96003.69
2023-05-14T06:20:52.338Z,96001.88
2023-05-14T06:23:19.903Z,96014.69
2023-05-14T06:25:49.452Z,96014.22
2023-05-14T06:28:18.647Z,96012.69
2023-05-14T06:30:46.254Z,96011.09
2023-05-14T06:33:15.229Z,96012.59
2023-05-14T06:35:43.241Z,96012.03
2023-05-14T06:38:10.902Z,96011.19
2023-05-14T06:40:38.558Z,96010.63
2023-05-14T06:43:06.584Z,96009.00
2023-05-14T06:45:34.222Z,96012.72
2023-05-14T06:48:01.794Z,96008.44
2023-05-14T06:50:30.822Z,96011.34
2023-05-14T06:52:58.450Z,96007.91
2023-05-14T06:55:25.970Z,96014.25
2023-05-14T06:57:53.712Z,96014.47
2023-05-14T07:00:22.756Z,96018.19
2023-05-14T07:02:50.620Z,96013.91
2023-05-14T07:05:18.362Z,96016.81
2023-05-14T07:07:47.353Z,96020.25
2023-05-14T07:10:15.024Z,96021.66
2023-05-14T07:12:42.884Z,96020.94
2023-05-14T07:15:11.821Z,96021.50
2023-05-14T07:17:39.597Z,96016.75
2023-05-14T07:20:08.532Z,96020.31
2023-05-14T07:22:36.165Z,96011.31
2023-05-14T07:25:06.169Z,96015.56
2023-05-14T07:27:33.764Z,96013.50
2023-05-14T07:30:01.325Z,96008.19
2023-05-14T07:32:28.938Z,96006.56
2023-05-14T07:34:57.008Z,96009.69
2023-05-14T07:37:25.914Z,96007.28
2023-05-14T07:39:53.782Z,96006.47
2023-05-14T07:42:35.338Z,96004.38
2023-05-14T07:45:04.756Z,95999.16
2023-05-14T07:47:32.730Z,96001.41
2023-05-14T07:50:00.848Z,95994.69
2023-05-14T07:52:28.659Z,95990.59
2023-05-14T07:54:56.250Z,95994.47
2023-05-14T07:57:26.243Z,96000.94
2023-05-14T07:59:53.962Z,96002.88
2023-05-14T08:02:21.614Z,96002.41
2023-05-14T08:04:49.260Z,96001.09
2023-05-14T08:07:17.181Z,96003.50
2023-05-14T08:09:44.822Z,96004.31
2023-05-14T08:12:12.765Z,95991.84
2023-05-14T08:14:41.643Z,96002.47
2023-05-14T08:17:09.411Z,96000.59
2023-05-14T08:19:37.093Z,95997.94
2023-05-14T08:22:05.480Z,96004.31
2023-05-14T08:24:33.008Z,95998.19
2023-05-14T08:27:00.595Z,95997.41
2023-05-14T08:29:28.119Z,95991.00
2023-05-14T08:31:57.235Z,95989.97
2023-05-14T08:34:24.846Z,95990.28
2023-05-14T08:36:52.450Z,95993.53
2023-05-14T08:39:20.030Z,95990.38
2023-05-14T08:41:47.830Z,95989.66
2023-05-14T08:44:19.177Z,95995.06
2023-05-14T08:46:47.605Z,95991.66
2023-05-14T08:49:36.431Z,95983.44
2023-05-14T08:52:04.742Z,95986.41
2023-05-14T08:54:32.581Z,95985.94
2023-05-14T08:57:00.439Z,95975.16
2023-05-14T08:59:27.997Z,95979.56
2023-05-14T09:01:57.006Z,95975.69
2023-05-14T09:04:26.279Z,95973.09
2023-05-14T09:06:55.380Z,95970.50
2023-05-14T09:09:23.942Z,95966.81
2023-05-14T09:11:52.797Z,95971.88
2023-05-14T09:14:20.856Z,95962.03
2023-05-14T09:16:50.691Z,95969.53
2023-05-14T09:19:19.173Z,95964.19
2023-05-14T09:21:49.705Z,95958.00
2023-05-14T09:24:21.901Z,95961.16
2023-05-14T09:26:52.327Z,95964.38
2023-05-14T09:29:20.252Z,95958.00
2023-05-14T09:31:51.666Z,95965.19
2023-05-14T09:34:25.222Z,95961.47
2023-05-14T09:36:57.302Z,95972.13
2023-05-14T09:39:25.111Z,95967.06
2023-05-14T09:41:53.073Z,95968.88
2023-05-14T09:44:21.817Z,95963.81
2023-05-14T09:46:50.348Z,95965.38
2023-05-14T09:49:18.604Z,95963.44
2023-05-14T09:51:46.196Z,95958.03
2023-05-14T09:54:15.301Z,95954.03
2023-05-14T09:56:44.617Z,95956.44
2023-05-14T09:59:12.275Z,95954.34
2023-05-14T10:01:42.850Z,95944.00
2023-05-14T10:04:11.947Z,95943.66
2023-05-14T10:06:41.963Z,95948.59
2023-05-14T10:09:13.874Z,95947.94
2023-05-14T10:11:46.177Z,95947.47
2023-05-14T10:14:19.450Z,95942.47
2023-05-14T10:16:49.893Z,95945.75
2023-05-14T10:19:19.148Z,95949.25
2023-05-14T10:21:50.646Z,95946.88
2023-05-14T10:24:20.059Z,95951.22
2023-05-14T10:26:49.654Z,95949.38
2023-05-14T10:29:17.279Z,95936.31
2023-05-14T10:31:49.493Z,95939.47
2023-05-14T10:34:34.485Z,95936.56
2023-05-14T10:37:02.470Z,95937.09
2023-05-14T10:39:46.753Z,95931.78
2023-05-14T10:42:18.755Z,95928.84
2023-05-14T10:44:58.537Z,95940.88
2023-05-14T10:47:27.644Z,95937.91
2023-05-14T10:49:56.940Z,95944.56
2023-05-14T10:52:25.606Z,95929.09
2023-05-14T10:54:55.237Z,95936.81
2023-05-14T10:57:26.026Z,95934.34
2023-05-14T10:59:55.690Z,95931.84
2023-05-14T11:02:25.358Z,95934.72
2023-05-14T11:04:58.575Z,95924.81
2023-05-14T11:07:30.017Z,95919.50
2023-05-14T11:10:03.388Z,95924.56
2023-05-14T11:12:32.636Z,95928.59
2023-05-14T11:15:02.051Z,95928.84
2023-05-14T11:17:31.125Z,95922.44
2023-05-14T11:19:59.698Z,95922.16
2023-05-14T11:22:28.266Z,95925.31
2023-05-14T11:24:55.948Z,95915.44
2023-05-14T11:27:24.005Z,95919.00
2023-05-14T11:29:53.449Z,95908.25
2023-05-14T11:32:21.247Z,95906.53
2023-05-14T11:34:48.965Z,95908.53
2023-05-14T11:37:17.746Z,95903.31
2023-05-14T11:39:49.867Z,95897.47
2023-05-14T11:42:19.403Z,95899.66
2023-05-14T11:44:48.880Z,95903.25
2023-05-14T11:47:19.159Z,95900.28
2023-05-14T11:49:47.276Z,95893.97
2023-05-14T11:52:19.078Z,95895.66
2023-05-14T11:54:46.989Z,95897.09
2023-05-14T11:57:17.432Z,95894.06
2023-05-14T11:59:45.471Z,95900.41
2023-05-14T12:02:14.823Z,95899.66
2023-05-14T12:04:44.653Z,95894.06
2023-05-14T12:07:13.994Z,95897.81
2023-05-14T12:09:48.859Z,95890.13
2023-05-14T12:12:19.046Z,95894.19
2023-05-14T12:14:47.363Z,95887.03
2023-05-14T12:17:16.385Z,95886.53
2023-05-14T12:19:47.975Z,95886.88
2023-05-14T12:22:17.393Z,95887.72
2023-05-14T12:24:53.362Z,95876.53
2023-05-14T12:27:23.350Z,95874.44
2023-05-14T12:29:53.398Z,95874.25
2023-05-14T12:32:20.983Z,95865.72
2023-05-14T12:34:49.950Z,95872.97
2023-05-14T12:37:18.354Z,95860.97
2023-05-14T12:39:45.936Z,95860.22
2023-05-14T12:42:13.623Z,95860.25
2023-05-14T12:44:41.361Z,95853.88
2023-05-14T12:47:09.143Z,95852.00
2023-05-14T12:49:36.775Z,95850.91
2023-05-14T12:52:25.624Z,95855.41
2023-05-14T12:54:54.033Z,95847.13
2023-05-14T12:57:21.765Z,95844.44
2023-05-14T12:59:49.292Z,95839.66
2023-05-14T13:02:17.726Z,95838.63
2023-05-14T13:04:45.879Z,95844.50
2023-05-14T13:07:14.875Z,95836.75
2023-05-14T13:09:42.487Z,95832.50
2023-05-14T13:12:10.692Z,95828.75
2023-05-14T13:14:38.272Z,95834.59
2023-05-14T13:17:06.948Z,95842.03
2023-05-14T13:19:34.553Z,95824.16
2023-05-14T13:22:02.125Z,95833.31
2023-05-14T13:24:31.495Z,95836.81
2023-05-14T13:26:59.286Z,95834.69
2023-05-14T13:29:43.029Z,95834.44
2023-05-14T13:32:10.605Z,95829.38
2023-05-14T13:34:38.637Z,95830.22
2023-05-14T13:37:06.309Z,95824.06
2023-05-14T13:39:35.262Z,95818.19
2023-05-14T13:42:02.870Z,95809.66
2023-05-14T13:44:30.485Z,95810.97
2023-05-14T13:46:58.254Z,95808.31
2023-05-14T13:49:25.894Z,95815.25
2023-05-14T13:51:53.475Z,95816.13
2023-05-14T13:54:21.282Z,95818.59
2023-05-14T13:56:50.245Z,95810.38
2023-05-14T13:59:17.854Z,95816.00
2023-05-14T14:01:45.547Z,95810.94
2023-05-14T14:04:15.999Z,95810.16
2023-05-14T14:06:43.604Z,95801.63
2023-05-14T14:09:13.324Z,95800.38
2023-05-14T14:11:42.160Z,95803.88
2023-05-14T14:14:11.184Z,95803.09
2023-05-14T14:16:38.813Z,95797.22
2023-05-14T14:19:06.970Z,95806.53
2023-05-14T14:21:35.217Z,95810.50
2023-05-14T14:24:03.094Z,95814.97
2023-05-14T14:26:31.107Z,95808.50
2023-05-14T14:28:58.765Z,95802.03
2023-05-14T14:31:28.370Z,95807.88
2023-05-14T14:33:57.033Z,95808.91
2023-05-14T14:36:24.575Z,95808.88
2023-05-14T14:38:52.176Z,95810.44
2023-05-14T14:41:19.787Z,95811.47
2023-05-14T14:43:47.391Z,95814.09
2023-05-14T14:46:15.003Z,95824.75
2023-05-14T14:48:43.998Z,95824.16
2023-05-14T14:51:11.909Z,95833.50
2023-05-14T14:53:40.329Z,95837.97
2023-05-14T14:56:08.277Z,95846.72
2023-05-14T14:58:36.536Z,95842.69
2023-05-14T15:01:04.186Z,95836.03
2023-05-14T15:03:32.368Z,95831.75
2023-05-14T15:06:01.520Z,95819.50
2023-05-14T15:08:29.450Z,95820.56
2023-05-14T15:10:57.363Z,95814.44
2023-05-14T15:13:25.677Z,95812.03
2023-05-14T15:15:53.627Z,95808.53
2023-05-14T15:18:21.665Z,95813.06
2023-05-14T15:20:49.326Z,95803.44
2023-05-14T15:23:18.357Z,95800.47
2023-05-14T15:25:46.064Z,95805.81
2023-05-14T15:28:13.702Z,95810.09
2023-05-14T15:30:41.289Z,95813.06
2023-05-14T15:33:09.292Z,95802.44
2023-05-14T15:35:37.387Z,95810.22
2023-05-14T15:38:05.176Z,95807.63
2023-05-14T15:40:35.001Z,95811.94
2023-05-14T15:43:02.768Z,95813.25
2023-05-14T15:45:30.440Z,95815.63
2023-05-14T15:47:58.159Z,95811.59
2023-05-14T15:50:27.272Z,95821.72
2023-05-14T15:52:55.126Z,95818.53
2023-05-14T15:55:22.813Z,95812.13
2023-05-14T15:57:51.804Z,95804.94
2023-05-14T16:00:20.166Z,95820.69
2023-05-14T16:02:48.097Z,95825.50
2023-05-14T16:05:15.998Z,95818.31
2023-05-14T16:07:43.872Z,95819.41
2023-05-14T16:10:11.938Z,95814.38
2023-05-14T16:12:39.612Z,95817.31
2023-05-14T16:15:09.856Z,95817.84
2023-05-14T16:17:37.751Z,95816.00
2023-05-14T16:20:06.482Z,95820.00
2023-05-14T16:22:34.673Z,95831.78
2023-05-14T16:25:03.515Z,95835.56
2023-05-14T16:27:31.458Z,95841.41
2023-05-14T16:29:59.130Z,95841.31
2023-05-14T16:32:28.130Z,95845.59
2023-05-14T16:34:56.423Z,95849.56
2023-05-14T16:37:24.384Z,95854.88
2023-05-14T16:39:51.978Z,95867.38
2023-05-14T16:42:19.592Z,95871.31
2023-05-14T16:44:47.861Z,95883.50
2023-05-14T16:47:15.573Z,95863.97
2023-05-14T16:49:44.516Z,95875.38
2023-05-14T16:52:12.099Z,95874.56
2023-05-14T16:54:40.061Z,95877.25
2023-05-14T16:57:07.744Z,95873.56
2023-05-14T16:59:36.041Z,95883.13
2023-05-14T17:02:03.741Z,95872.69
2023-05-14T17:04:33.191Z,95868.13
2023-05-14T17:07:03.425Z,95856.94
2023-05-14T17:09:31.256Z,95856.72
2023-05-14T17:11:58.895Z,95862.41
2023-05-14T17:14:26.496Z,95859.72
2023-05-14T17:16:54.761Z,95867.22
2023-05-14T17:19:22.442Z,95863.97
2023-05-14T17:21:50.164Z,95864.72
2023-05-14T17:24:19.272Z,95861.50
2023-05-14T17:26:46.874Z,95868.97
2023-05-14T17:29:14.422Z,95863.06
2023-05-14T17:31:42.081Z,95853.97
2023-05-14T17:34:09.718Z,95866.72
2023-05-14T17:36:37.843Z,95869.38
2023-05-14T17:39:05.424Z,95870.22
2023-05-14T17:41:34.451Z,95869.72
2023-05-14T17:44:02.744Z,95872.38
2023-05-14T17:46:30.670Z,95881.66
2023-05-14T17:48:58.630Z,95887.00
2023-05-14T17:51:26.285Z,95872.88
2023-05-14T17:53:53.966Z,95871.50
2023-05-14T17:56:21.999Z,95880.81
2023-05-14T17:58:51.015Z,95880.00
2023-05-14T18:01:18.931Z,95874.94
2023-05-14T18:03:46.642Z,95876.00
2023-05-14T18:06:14.980Z,95874.63
2023-05-14T18:08:42.815Z,95886.34
2023-05-14T18:11:11.213Z,95890.88
2023-05-14T18:13:38.928Z,95890.31
2023-05-14T18:16:08.684Z,95887.66
2023-05-14T18:18:36.351Z,95888.16
2023-05-14T18:21:04.103Z,95884.91
2023-05-14T18:23:32.271Z,95894.78
2023-05-14T18:26:01.389Z,95906.47
2023-05-14T18:28:29.581Z,95904.06
2023-05-14T18:30:57.259Z,95891.00
2023-05-14T18:33:26.344Z,95900.31
2023-05-14T18:35:53.969Z,95905.09
2023-05-14T18:38:21.516Z,95902.66
2023-05-14T18:40:49.800Z,95901.31
2023-05-14T18:43:18.434Z,95908.50
2023-05-14T18:45:47.259Z,95913.25
2023-05-14T18:48:16.140Z,95915.09
2023-05-14T18:50:45.244Z,95913.72
2023-05-14T18:53:12.866Z,95923.84
2023-05-14T18:55:40.542Z,95917.97
2023-05-14T18:58:08.820Z,95915.56
2023-05-14T19:00:36.441Z,95927.78
2023-05-14T19:03:04.360Z,95936.59
2023-05-14T19:05:32.118Z,95936.03
2023-05-14T19:08:01.771Z,95933.84
2023-05-14T19:10:29.480Z,95935.16
2023-05-14T19:12:57.981Z,95932.75
2023-05-14T19:15:26.072Z,95929.53
2023-05-14T19:17:54.254Z,95926.06
2023-05-14T19:20:21.911Z,95927.13
2023-05-14T19:22:49.532Z,95938.03
2023-05-14T19:25:18.668Z,95936.66
2023-05-14T19:27:50.512Z,95944.88
2023-05-14T19:30:18.284Z,95939.81
2023-05-14T19:32:46.052Z,95940.84
2023-05-14T19:35:13.829Z,95945.38
2023-05-14T19:37:41.384Z,95946.41
2023-05-14T19:40:09.936Z,95950.38
2023-05-14T19:42:38.912Z,95953.28
2023-05-14T19:45:07.544Z,95946.34
2023-05-14T19:47:35.310Z,95950.88
2023-05-14T19:50:02.907Z,95950.28
2023-05-14T19:52:30.456Z,95966.50
2023-05-14T19:54:58.023Z,95959.59
2023-05-14T19:57:26.496Z,95970.22
2023-05-14T19:59:55.506Z,95968.84
2023-05-14T20:02:23.073Z,95961.94
2023-05-14T20:04:51.545Z,95967.50
2023-05-14T20:07:20.086Z,95962.44
2023-05-14T20:09:48.397Z,95961.59
2023-05-14T20:12:16.735Z,95960.81
2023-05-14T20:14:45.258Z,95966.38
2023-05-14T20:17:14.297Z,95962.09
2023-05-14T20:19:43.705Z,95967.66
2023-05-14T20:22:11.420Z,95965.25
2023-05-14T20:24:40.967Z,95965.44
2023-05-14T20:27:08.869Z,95966.53
2023-05-14T20:29:36.553Z,95957.16
2023-05-14T20:32:04.287Z,95954.50
2023-05-14T20:34:33.209Z,95960.88
2023-05-14T20:37:01.193Z,95965.38
2023-05-14T20:39:28.817Z,95954.19
2023-05-14T20:41:56.394Z,95957.09
2023-05-14T20:44:23.946Z,95953.63
2023-05-14T20:46:51.626Z,95955.47
2023-05-14T20:49:19.180Z,95950.16
2023-05-14T20:51:48.544Z,95943.50
2023-05-14T20:54:16.355Z,95939.22
2023-05-14T20:56:44.084Z,95936.78
2023-05-14T20:59:11.691Z,95942.34
2023-05-14T21:01:39.306Z,95938.91
2023-05-14T21:04:07.129Z,95938.91
2023-05-14T21:06:34.995Z,95939.94
2023-05-14T21:09:04.530Z,95939.16
2023-05-14T21:11:32.100Z,95942.84
2023-05-14T21:13:59.646Z,95942.28
2023-05-14T21:16:27.325Z,95939.63
2023-05-14T21:18:55.001Z,95933.97
2023-05-14T21:21:22.652Z,95938.72
2023-05-14T21:23:50.433Z,95937.13
2023-05-14T21:26:19.526Z,95930.75
2023-05-14T21:28:47.135Z,95929.13
2023-05-14T21:31:14.872Z,95925.69
2023-05-14T21:33:42.541Z,95906.53
2023-05-14T21:36:10.825Z,95914.50
2023-05-14T21:38:38.640Z,95909.97
2023-05-14T21:41:06.368Z,95909.41
2023-05-14T21:43:35.555Z,95910.47
2023-05-14T21:46:03.222Z,95904.34
2023-05-14T21:48:30.880Z,95899.28
2023-05-14T21:50:58.586Z,95894.75
2023-05-14T21:53:26.487Z,95896.84
2023-05-14T21:55:55.205Z,95895.47
2023-05-14T21:58:22.867Z,95899.19
2023-05-14T22:00:51.940Z,95902.66
2023-05-14T22:03:19.726Z,95898.97
2023-05-14T22:05:47.398Z,95898.13
2023-05-14T22:08:16.977Z,95906.34
2023-05-14T22:10:45.071Z,95900.25
2023-05-14T22:13:12.963Z,95902.09
2023-05-14T22:15:40.780Z,95900.47
2023-05-14T22:18:09.890Z,95902.34
2023-05-14T22:20:37.488Z,95900.97
2023-05-14T22:23:05.052Z,95893.22
2023-05-14T22:25:32.725Z,95897.75
2023-05-14T22:28:00.433Z,95893.47
2023-05-14T22:30:27.994Z,95898.78
2023-05-14T22:32:55.876Z,95900.66
2023-05-14T22:35:25.142Z,95900.91
2023-05-14T22:37:53.035Z,95898.25
2023-05-14T22:40:20.653Z,95899.28
2023-05-14T22:42:48.273Z,95894.19
2023-05-14T22:45:16.180Z,95905.31
2023-05-14T22:47:43.840Z,95900.78
2023-05-14T22:50:12.090Z,95900.25
2023-05-14T22:52:41.499Z,95905.56
2023-05-14T22:55:09.767Z,95900.25
2023-05-14T22:57:38.002Z,95903.97
2023-05-14T23:00:08.778Z,95901.56
2023-05-14T23:02:36.443Z,95906.88
2023-05-14T23:05:04.100Z,95901.78
2023-05-14T23:07:31.790Z,95891.41
2023-05-14T23:10:00.743Z,95893.81
2023-05-14T23:12:28.328Z,95896.47
2023-05-14T23:14:55.981Z,95896.72
2023-05-14T23:17:23.626Z,95897.75
2023-05-14T23:19:51.370Z,95898.00
2023-05-14T23:22:19.125Z,95891.06
2023-05-14T23:24:46.687Z,95884.94
2023-05-14T23:27:15.655Z,95889.47
2023-05-14T23:29:43.318Z,95879.88
2023-05-14T23:32:10.936Z,95884.16
2023-05-14T23:34:38.618Z,95878.84
2023-05-14T23:37:06.408Z,95871.91
2023-05-14T23:39:34.103Z,95874.81
2023-05-14T23:42:01.675Z,95868.69
2023-05-14T23:44:30.591Z,95866.03
2023-05-14T23:46:58.230Z,95864.41
2023-05-14T23:49:25.846Z,95854.59
2023-05-14T23:51:53.482Z,95862.78
2023-05-14T23:54:21.113Z,95857.47
2023-05-14T23:56:48.836Z,95845.25
2023-05-14T23:59:16.848Z,95851.63
